createdAt,value
2022-11-27T00:01:33.464Z,7.10
2022-11-27T00:04:01.275Z,7.40
2022-11-27T00:06:30.048Z,6.85
2022-11-27T00:08:59.450Z,7.28
2022-11-27T00:11:29.235Z,7.03
2022-11-27T00:13:57.098Z,7.00
2022-11-27T00:16:26.068Z,6.93
2022-11-27T00:18:53.866Z,7.45
2022-11-27T00:21:26.912Z,6.72
2022-11-27T00:23:55.975Z,6.75
2022-11-27T00:26:24.078Z,6.40
2022-11-27T00:28:51.761Z,6.10
2022-11-27T00:31:29.189Z,6.82
2022-11-27T00:34:02.327Z,6.10
2022-11-27T00:36:31.463Z,6.50
2022-11-27T00:38:59.047Z,6.35
2022-11-27T00:41:29.152Z,6.05
2022-11-27T00:43:57.184Z,5.67
2022-11-27T00:46:28.929Z,5.70
2022-11-27T00:49:00.759Z,5.80
2022-11-27T00:51:29.373Z,5.72
2022-11-27T00:53:57.044Z,5.40
2022-11-27T00:56:29.780Z,5.20
2022-11-27T00:58:57.457Z,4.70
2022-11-27T01:01:27.888Z,5.43
2022-11-27T01:03:56.972Z,5.60
2022-11-27T01:06:25.344Z,5.18
2022-11-27T01:08:53.507Z,5.03
2022-11-27T01:11:25.730Z,5.28
2022-11-27T01:13:55.430Z,5.15
2022-11-27T01:16:25.191Z,4.80
2022-11-27T01:18:55.676Z,4.93
2022-11-27T01:21:23.758Z,4.90
2022-11-27T01:23:51.245Z,4.90
2022-11-27T01:26:19.352Z,5.13
2022-11-27T01:28:47.149Z,5.27
2022-11-27T01:31:18.252Z,4.70
2022-11-27T01:33:46.959Z,4.78
2022-11-27T01:36:16.027Z,4.55
2022-11-27T01:38:43.444Z,4.90
2022-11-27T01:41:18.931Z,4.93
2022-11-27T01:43:49.995Z,4.63
2022-11-27T01:46:38.514Z,4.65
2022-11-27T01:49:14.431Z,4.72
2022-11-27T01:51:45.617Z,5.00
2022-11-27T01:54:14.518Z,4.80
2022-11-27T01:56:43.892Z,5.03
2022-11-27T01:59:12.211Z,4.65
2022-11-27T02:01:39.787Z,4.53
2022-11-27T02:04:10.763Z,4.45
2022-11-27T02:06:38.355Z,4.70
2022-11-27T02:09:06.147Z,4.15
2022-11-27T02:11:41.305Z,4.30
2022-11-27T02:14:25.787Z,4.38
2022-11-27T02:17:22.636Z,4.45
2022-11-27T02:19:56.470Z,4.20
2022-11-27T02:22:26.676Z,3.67
2022-11-27T02:25:06.377Z,3.83
2022-11-27T02:28:02.467Z,3.53
2022-11-27T02:30:34.939Z,3.50
2022-11-27T02:33:05.753Z,4.00
2022-11-27T02:35:41.124Z,3.90
2022-11-27T02:38:11.248Z,3.65
2022-11-27T02:40:41.721Z,3.40
2022-11-27T02:43:17.400Z,3.47
2022-11-27T02:45:48.347Z,3.47
2022-11-27T02:48:22.672Z,3.50
2022-11-27T02:50:51.136Z,3.47
2022-11-27T02:53:31.012Z,3.28
2022-11-27T02:56:00.552Z,3.30
2022-11-27T02:58:29.239Z,3.25
2022-11-27T03:00:57.974Z,3.45
2022-11-27T03:03:32.046Z,3.40
2022-11-27T03:06:06.019Z,3.42
2022-11-27T03:08:39.296Z,3.73
2022-11-27T03:11:12.345Z,3.17
2022-11-27T03:13:45.316Z,3.47
2022-11-27T03:16:30.552Z,3.20
2022-11-27T03:19:30.187Z,2.97
2022-11-27T03:21:59.997Z,3.10
2022-11-27T03:24:28.315Z,3.10
2022-11-27T03:27:00.283Z,2.90
2022-11-27T03:29:35.257Z,3.30
2022-11-27T03:32:04.255Z,2.70
2022-11-27T03:34:32.525Z,2.78
2022-11-27T03:37:02.920Z,2.88
2022-11-27T03:39:31.084Z,2.83
2022-11-27T03:42:07.421Z,2.90
2022-11-27T03:45:04.344Z,3.00
2022-11-27T03:48:12.336Z,2.80
2022-11-27T03:51:03.800Z,2.90
2022-11-27T03:54:04.113Z,2.60
2022-11-27T03:56:34.686Z,2.47
2022-11-27T03:59:09.270Z,2.65
2022-11-27T04:01:37.234Z,2.55
2022-11-27T04:04:04.692Z,2.70
2022-11-27T04:06:32.127Z,2.60
2022-11-27T04:08:59.556Z,2.65
2022-11-27T04:11:27.370Z,2.67
2022-11-27T04:13:54.784Z,2.50
2022-11-27T04:16:22.580Z,2.85
2022-11-27T04:18:49.970Z,2.80
2022-11-27T04:21:17.493Z,2.70
2022-11-27T04:23:45.476Z,2.63
2022-11-27T04:26:13.109Z,2.75
2022-11-27T04:28:40.455Z,2.70
2022-11-27T04:31:07.964Z,2.78
2022-11-27T04:33:35.311Z,2.90
2022-11-27T04:36:02.657Z,2.80
2022-11-27T04:38:29.940Z,2.78
2022-11-27T04:40:58.006Z,2.83
2022-11-27T04:43:25.354Z,3.00
2022-11-27T04:45:52.730Z,2.78
2022-11-27T04:48:20.080Z,2.70
2022-11-27T04:50:47.377Z,2.83
2022-11-27T04:53:14.818Z,2.97
2022-11-27T04:55:42.144Z,2.58
2022-11-27T04:58:09.476Z,2.80
2022-11-27T05:00:36.923Z,2.53
2022-11-27T05:03:04.357Z,2.72
2022-11-27T05:05:31.745Z,2.58
2022-11-27T05:07:59.221Z,2.72
2022-11-27T05:10:26.799Z,2.63
2022-11-27T05:12:54.182Z,2.50
2022-11-27T05:15:21.534Z,2.40
2022-11-27T05:17:48.888Z,2.60
2022-11-27T05:20:16.396Z,2.70
2022-11-27T05:22:44.854Z,2.40
2022-11-27T05:25:12.297Z,2.63
2022-11-27T05:27:39.692Z,2.40
2022-11-27T05:30:07.817Z,2.70
2022-11-27T05:32:35.123Z,2.28
2022-11-27T05:35:02.470Z,2.35
2022-11-27T05:37:29.801Z,2.25
2022-11-27T05:39:57.120Z,2.40
2022-11-27T05:42:24.453Z,2.38
2022-11-27T05:44:56.677Z,2.85
2022-11-27T05:47:25.570Z,2.70
2022-11-27T05:49:53.321Z,2.60
2022-11-27T05:52:20.716Z,2.50
2022-11-27T05:54:47.996Z,2.63
2022-11-27T05:57:15.409Z,2.50
2022-11-27T05:59:42.722Z,2.78
2022-11-27T06:02:11.964Z,2.58
2022-11-27T06:04:42.662Z,2.53
2022-11-27T06:07:10.489Z,2.70
2022-11-27T06:09:38.241Z,2.88
2022-11-27T06:12:05.878Z,2.88
2022-11-27T06:14:35.058Z,2.70
2022-11-27T06:17:03.164Z,2.65
2022-11-27T06:19:30.809Z,2.40
2022-11-27T06:21:58.252Z,2.53
2022-11-27T06:24:25.770Z,2.80
2022-11-27T06:26:53.105Z,2.90
2022-11-27T06:29:20.414Z,2.63
2022-11-27T06:31:47.863Z,2.60
2022-11-27T06:34:15.246Z,2.83
2022-11-27T06:36:42.514Z,2.53
2022-11-27T06:39:11.893Z,2.60
2022-11-27T06:41:39.221Z,2.65
2022-11-27T06:44:06.617Z,2.65
2022-11-27T06:46:33.927Z,2.85
2022-11-27T06:49:01.426Z,2.90
2022-11-27T06:51:31.215Z,3.03
2022-11-27T06:54:00.442Z,2.60
2022-11-27T06:56:29.143Z,2.75
2022-11-27T06:58:57.935Z,2.83
2022-11-27T07:01:27.382Z,2.90
2022-11-27T07:03:55.510Z,2.67
2022-11-27T07:06:27.174Z,2.67
2022-11-27T07:08:55.458Z,3.05
2022-11-27T07:11:26.179Z,3.30
2022-11-27T07:13:56.150Z,2.97
2022-11-27T07:16:24.076Z,3.08
2022-11-27T07:18:54.097Z,3.17
2022-11-27T07:21:21.889Z,2.95
2022-11-27T07:23:49.313Z,2.90
2022-11-27T07:26:22.297Z,3.00
2022-11-27T07:28:50.129Z,2.63
2022-11-27T07:31:23.122Z,2.70
2022-11-27T07:33:52.563Z,3.00
2022-11-27T07:36:28.994Z,3.13
2022-11-27T07:38:57.997Z,3.28
2022-11-27T07:41:30.617Z,3.50
2022-11-27T07:44:01.224Z,3.65
2022-11-27T07:46:30.195Z,3.78
2022-11-27T07:48:58.163Z,4.30
2022-11-27T07:51:25.477Z,4.20
2022-11-27T07:53:52.919Z,4.70
2022-11-27T07:56:21.054Z,4.57
2022-11-27T07:58:48.543Z,4.90
2022-11-27T08:01:18.372Z,4.60
2022-11-27T08:03:46.393Z,4.68
2022-11-27T08:06:16.746Z,4.70
2022-11-27T08:08:44.333Z,4.53
2022-11-27T08:11:23.338Z,4.28
2022-11-27T08:13:55.145Z,4.43
2022-11-27T08:16:22.694Z,4.07
2022-11-27T08:18:50.105Z,3.78
2022-11-27T08:21:17.436Z,3.60
2022-11-27T08:23:44.842Z,4.40
2022-11-27T08:26:12.806Z,4.27
2022-11-27T08:28:40.564Z,4.55
2022-11-27T08:31:11.333Z,4.45
2022-11-27T08:33:38.776Z,5.23
2022-11-27T08:36:09.766Z,5.30
2022-11-27T08:38:40.518Z,5.10
2022-11-27T08:41:08.920Z,5.32
2022-11-27T08:43:36.699Z,5.70
2022-11-27T08:46:05.764Z,6.10
2022-11-27T08:48:33.480Z,5.72
2022-11-27T08:51:09.210Z,5.25
2022-11-27T08:53:37.746Z,5.38
2022-11-27T08:56:19.544Z,5.00
2022-11-27T08:58:47.027Z,5.10
2022-11-27T09:01:19.199Z,4.75
2022-11-27T09:03:47.818Z,4.53
2022-11-27T09:06:18.772Z,4.75
2022-11-27T09:08:46.126Z,4.50
2022-11-27T09:11:15.431Z,4.85
2022-11-27T09:13:43.474Z,4.03
2022-11-27T09:16:13.879Z,4.20
2022-11-27T09:18:44.014Z,3.95
2022-11-27T09:21:12.896Z,4.23
2022-11-27T09:23:40.848Z,4.00
2022-11-27T09:26:14.102Z,4.20
2022-11-27T09:28:42.611Z,3.85
2022-11-27T09:31:12.643Z,4.25
2022-11-27T09:33:41.320Z,4.55
2022-11-27T09:36:11.437Z,5.10
2022-11-27T09:38:39.146Z,5.00
2022-11-27T09:41:18.189Z,4.47
2022-11-27T09:43:53.567Z,3.83
2022-11-27T09:46:31.344Z,3.90
2022-11-27T09:49:02.878Z,4.25
2022-11-27T09:51:36.031Z,3.90
2022-11-27T09:54:18.696Z,3.67
2022-11-27T09:56:50.181Z,3.30
2022-11-27T09:59:21.344Z,3.40
2022-11-27T10:01:51.057Z,4.40
2022-11-27T10:04:21.029Z,3.25
2022-11-27T10:07:25.910Z,3.03
2022-11-27T10:10:05.029Z,3.08
2022-11-27T10:12:54.133Z,3.25
2022-11-27T10:15:48.445Z,3.22
2022-11-27T10:18:32.402Z,2.90
2022-11-27T10:21:11.779Z,3.17
2022-11-27T10:24:02.256Z,2.70
2022-11-27T10:26:36.552Z,2.72
2022-11-27T10:29:28.408Z,2.65
2022-11-27T10:32:00.943Z,2.60
2022-11-27T10:34:44.753Z,2.50
2022-11-27T10:37:18.085Z,2.22
2022-11-27T10:39:54.141Z,2.88
2022-11-27T10:42:50.643Z,2.50
2022-11-27T10:45:29.156Z,2.40
2022-11-27T10:47:56.553Z,2.85
2022-11-27T10:50:23.954Z,3.10
2022-11-27T10:52:57.913Z,2.80
2022-11-27T10:55:51.574Z,2.80
2022-11-27T10:58:45.430Z,3.17
2022-11-27T11:01:18.830Z,3.03
2022-11-27T11:03:46.745Z,3.22
2022-11-27T11:06:21.207Z,3.45
2022-11-27T11:09:02.931Z,3.03
2022-11-27T11:11:30.285Z,2.85
2022-11-27T11:13:57.807Z,4.40
2022-11-27T11:16:34.749Z,4.05
2022-11-27T11:19:03.183Z,3.25
2022-11-27T11:21:34.347Z,2.90
2022-11-27T11:24:20.571Z,3.22
2022-11-27T11:26:54.288Z,2.92
2022-11-27T11:29:53.406Z,3.30
2022-11-27T11:32:22.716Z,3.75
2022-11-27T11:35:00.807Z,3.10
2022-11-27T11:37:39.517Z,2.58
2022-11-27T11:40:20.777Z,3.05
2022-11-27T11:43:04.295Z,3.28
2022-11-27T11:45:33.811Z,2.60
2022-11-27T11:48:27.543Z,2.55
2022-11-27T11:51:07.157Z,2.50
2022-11-27T11:53:42.613Z,2.30
2022-11-27T11:56:31.805Z,2.45
2022-11-27T11:59:03.742Z,2.63
2022-11-27T12:01:30.978Z,2.88
2022-11-27T12:04:21.639Z,2.88
2022-11-27T12:07:01.341Z,2.92
2022-11-27T12:09:43.799Z,2.50
2022-11-27T12:12:32.656Z,3.15
2022-11-27T12:15:20.077Z,2.88
2022-11-27T12:18:00.983Z,2.80
2022-11-27T12:20:43.536Z,3.10
2022-11-27T12:23:25.604Z,3.80
2022-11-27T12:28:36.596Z,3.03
2022-11-27T12:31:29.284Z,3.60
2022-11-27T12:34:32.116Z,3.15
2022-11-27T12:37:14.228Z,2.92
2022-11-27T12:40:34.253Z,3.58
2022-11-27T12:43:22.009Z,3.17
2022-11-27T12:46:21.152Z,3.30
2022-11-27T12:48:59.980Z,3.25
2022-11-27T12:51:37.931Z,3.15
2022-11-27T12:54:05.330Z,3.00
2022-11-27T12:56:42.659Z,2.90
2022-11-27T12:59:36.995Z,3.25
2022-11-27T13:02:42.498Z,3.13
2022-11-27T13:05:17.848Z,2.83
2022-11-27T13:08:11.221Z,3.55
2022-11-27T13:10:44.094Z,3.03
2022-11-27T13:13:31.447Z,3.90
2022-11-27T13:16:04.321Z,3.58
2022-11-27T13:18:54.663Z,3.83
2022-11-27T13:21:26.899Z,4.43
2022-11-27T13:23:54.597Z,4.47
2022-11-27T13:26:27.420Z,3.67
2022-11-27T13:29:29.085Z,3.75
2022-11-27T13:32:00.326Z,3.97
2022-11-27T13:34:30.164Z,3.67
2022-11-27T13:37:01.441Z,3.63
2022-11-27T13:39:32.908Z,3.45
2022-11-27T13:42:07.982Z,3.80
2022-11-27T13:44:40.643Z,3.67
2022-11-27T13:47:13.899Z,3.72
2022-11-27T13:49:43.402Z,3.60
2022-11-27T13:52:19.731Z,3.70
2022-11-27T13:54:56.757Z,3.42
2022-11-27T13:57:24.796Z,3.75
2022-11-27T14:00:06.792Z,3.38
2022-11-27T14:02:51.210Z,3.78
2022-11-27T14:05:34.071Z,3.75
2022-11-27T14:08:01.628Z,3.60
2022-11-27T14:10:32.058Z,3.80
2022-11-27T14:13:03.864Z,3.90
2022-11-27T14:18:18.561Z,3.45
2022-11-27T14:20:52.342Z,4.13
2022-11-27T14:23:31.120Z,3.00
2022-11-27T14:26:13.410Z,3.22
2022-11-27T14:28:49.159Z,3.03
2022-11-27T14:31:31.623Z,3.47
2022-11-27T14:34:23.136Z,3.70
2022-11-27T14:36:52.914Z,3.30
2022-11-27T14:39:31.874Z,3.83
2022-11-27T14:42:05.130Z,3.70
2022-11-27T14:44:32.577Z,3.70
2022-11-27T14:47:03.620Z,3.78
2022-11-27T14:49:32.995Z,3.50
2022-11-27T14:52:05.501Z,4.00
2022-11-27T14:54:36.890Z,4.65
2022-11-27T14:57:05.888Z,4.53
2022-11-27T14:59:33.601Z,3.83
2022-11-27T15:02:21.421Z,5.10
2022-11-27T15:05:03.829Z,4.43
2022-11-27T15:07:36.564Z,5.10
2022-11-27T15:10:22.867Z,4.50
2022-11-27T15:12:50.648Z,5.38
2022-11-27T15:15:25.802Z,4.90
2022-11-27T15:18:02.571Z,5.05
2022-11-27T15:20:41.017Z,5.47
2022-11-27T15:23:30.557Z,6.10
2022-11-27T15:26:03.709Z,5.65
2022-11-27T15:28:58.961Z,5.20
2022-11-27T15:31:29.315Z,5.60
2022-11-27T15:33:59.311Z,4.63
2022-11-27T15:36:26.845Z,5.30
2022-11-27T15:39:16.180Z,4.47
2022-11-27T15:42:01.188Z,4.72
2022-11-27T15:44:31.210Z,4.70
2022-11-27T15:47:01.400Z,4.80
2022-11-27T15:49:29.333Z,4.78
2022-11-27T15:51:57.814Z,4.30
2022-11-27T15:54:25.971Z,4.20
2022-11-27T15:56:53.285Z,4.68
2022-11-27T15:59:20.819Z,4.22
2022-11-27T16:01:49.648Z,4.40
2022-11-27T16:04:17.479Z,4.85
2022-11-27T16:06:45.661Z,4.70
2022-11-27T16:09:13.087Z,4.60
2022-11-27T16:11:40.807Z,5.05
2022-11-27T16:14:08.258Z,5.35
2022-11-27T16:16:35.754Z,6.32
2022-11-27T16:19:05.413Z,6.68
2022-11-27T16:21:34.821Z,6.32
2022-11-27T16:24:04.431Z,7.72
2022-11-27T16:26:32.618Z,7.28
2022-11-27T16:29:00.255Z,6.85
2022-11-27T16:31:28.077Z,7.00
2022-11-27T16:33:55.593Z,6.78
2022-11-27T16:36:25.535Z,6.55
2022-11-27T16:38:57.456Z,6.78
2022-11-27T16:41:26.078Z,6.32
2022-11-27T16:43:56.750Z,6.00
2022-11-27T16:46:28.153Z,6.25
2022-11-27T16:48:57.631Z,5.43
2022-11-27T16:51:28.607Z,5.35
2022-11-27T16:53:57.881Z,6.00
2022-11-27T16:56:27.957Z,5.65
2022-11-27T16:59:02.360Z,6.07
2022-11-27T17:01:35.258Z,6.28
2022-11-27T17:04:04.795Z,6.10
2022-11-27T17:06:33.612Z,6.15
2022-11-27T17:09:02.395Z,6.35
2022-11-27T17:11:35.842Z,5.55
2022-11-27T17:14:08.795Z,6.60
2022-11-27T17:16:41.270Z,6.57
2022-11-27T17:19:15.602Z,6.22
2022-11-27T17:21:44.818Z,5.70
2022-11-27T17:24:15.961Z,6.82
2022-11-27T17:26:48.315Z,6.03
2022-11-27T17:29:18.775Z,7.03
2022-11-27T17:31:46.199Z,6.60
2022-11-27T17:34:15.715Z,7.07
2022-11-27T17:36:45.436Z,6.78
2022-11-27T17:39:15.181Z,7.00
2022-11-27T17:41:46.775Z,7.00
2022-11-27T17:44:14.311Z,6.20
2022-11-27T17:46:41.914Z,7.03
2022-11-27T17:49:10.583Z,7.65
2022-11-27T17:51:38.898Z,8.15
2022-11-27T17:54:06.952Z,8.20
2022-11-27T17:56:34.854Z,8.18
2022-11-27T17:59:03.156Z,7.85
2022-11-27T18:01:31.316Z,8.98
2022-11-27T18:04:01.114Z,9.00
2022-11-27T18:06:30.948Z,8.93
2022-11-27T18:08:59.305Z,9.68
2022-11-27T18:11:28.456Z,11.27
2022-11-27T18:13:58.747Z,10.10
2022-11-27T18:16:32.687Z,11.88
2022-11-27T18:19:04.489Z,10.95
2022-11-27T18:29:36.073Z,11.02
2022-11-27T18:32:03.589Z,12.10
2022-11-27T18:34:31.279Z,12.35
2022-11-27T18:36:59.681Z,12.52
2022-11-27T18:39:28.183Z,12.63
2022-11-27T18:41:55.635Z,13.48
2022-11-27T18:44:23.376Z,12.80
2022-11-27T18:46:50.814Z,13.43
2022-11-27T18:49:19.050Z,12.30
2022-11-27T18:51:49.143Z,13.05
2022-11-27T18:54:16.677Z,12.63
2022-11-27T18:56:44.006Z,13.70
2022-11-27T18:59:11.654Z,13.50
2022-11-27T19:01:42.339Z,13.43
2022-11-27T19:04:11.827Z,12.73
2022-11-27T19:06:39.822Z,13.55
2022-11-27T19:09:07.632Z,14.30
2022-11-27T19:11:35.444Z,14.38
2022-11-27T19:14:04.777Z,14.73
2022-11-27T19:16:35.210Z,14.38
2022-11-27T19:19:05.351Z,14.10
2022-11-27T19:21:35.054Z,14.32
2022-11-27T19:24:05.352Z,13.35
2022-11-27T19:26:35.661Z,14.90
2022-11-27T19:29:07.879Z,15.25
2022-11-27T19:31:38.109Z,14.98
